Houston, TX (77024)

2:49 AM CST on December 27, 2014 (GMT -0600)
Memorial Villages, Houston TX 77024 | Change Station
CLOSE
Current Station
Personal Weather Station
Location: Houston, TX
Elevation: 91 ft
Nearby Weather Stations

Elev 91 ft 29.77 °N, 95.51 °W | Updated 12 seconds ago

Overcast
Overcast
68.2 °F
Feels Like 68.2 °F
N
0.0
Wind Variable Wind from South
Gusts 2.0 mph

Today
High -- | Low -- °F
--% Chance of Precip.
Yesterday
High -- | Low -- °F
Precip. -- in
7:15 AM 5:30 PM
Waxing Crescent, 34% visible
Pressure 29.94 in
Visibility -9999.0 miles
Clouds Overcast 400 ft
Dew Point 67 °F
Humidity 96%
Rainfall 0.00 in
Snow Depth Not available.
UV 0.0 out of 12
Pollen 6.50 out of 12
Air Quality Not available.
Flu Activity Not available.
METAR KMCJ 270835Z AUTO 15012KT OVC004 20/20 A2994 RMK AO1

More Conditions Fewer Conditions

Pressure 29.94 in
Visibility -9999.0 miles
Clouds Overcast 400 ft
Dew Point 67 °F
Humidity 96%
Rainfall 0.00 in
Snow Depth Not available.
UV 0.0 out of 12
Pollen 6.50 out of 12
Air Quality Not available.
Flu Activity Not available.
METAR KMCJ 270835Z AUTO 15012KT OVC004 20/20 A2994 RMK AO1

More Conditions Fewer Conditions

10-Day Weather Forecast

Almanac

Astronomy

Dec. 27, 2014 Rise Set
Actual Time
Civil Twilight
Nautical Twilight
Astronomical Twilight
Moon
Length of Visible Light
Length of Day
Tomorrow will be .
, % of the Moon is Illuminated

Today's Extremes

State Highs State Lows

Community

WunderPhotos

Upload Photos

1,780,863 photos uploaded!

WunderBlogs® & News

Nearby

Air Quality

  Air Quality AQ Index Pollutant
Not available.

Snow Depth

Station Depth Elevation

Earthquake Activity

City Distance Mag. Time & Date
Minimum magnitude displayed is 2.5.

Coastal Water Temperatures

Place Temperature

Nearby Weather Stations